Time;durP1;ratioP1;P1;durP2;ratioP2;P2;SDS_P1;SDS_P2;PMS_P1;PMS_P2;Temp;Humidity;BMP_temperature;BMP_pressure;BME280_temperature;BME280_humidity;BME280_pressure;Samples;Min_cycle;Max_cycle;Signal;HPM_P1;HPM_P2
2022/12/22 03:26:27;;;;;;;7.75;6.13;;;8.70;91.50;;;;;;4979777;28;20417;-65
2022/12/22 03:28:53;;;;;;;7.35;6.57;;;8.70;91.50;;;;;;4981610;28;20102;-66
2022/12/22 03:31:19;;;;;;;8.27;6.18;;;8.70;91.60;;;;;;4982039;28;20060;-67
2022/12/22 03:33:45;;;;;;;6.78;6.07;;;8.70;91.60;;;;;;4981147;28;20568;-66
2022/12/22 03:36:10;;;;;;;7.63;6.03;;;8.80;91.70;;;;;;4986087;28;20333;-66
2022/12/22 03:38:36;;;;;;;9.30;5.90;;;8.80;91.80;;;;;;4983681;28;20490;-67
2022/12/22 03:41:02;;;;;;;6.30;5.20;;;8.80;91.90;;;;;;4985499;28;20035;-66
2022/12/22 03:46:29;;;;;;;7.22;5.03;;;8.90;92.10;;;;;;4960424;28;20030;-67
2022/12/22 03:49:09;;;;;;;5.25;4.38;;;8.90;92.20;;;;;;4982217;28;20031;-66
2022/12/22 03:51:40;;;;;;;6.18;4.35;;;9.00;92.20;;;;;;4984788;28;20034;-66
2022/12/22 03:54:07;;;;;;;4.88;3.90;;;9.00;92.20;;;;;;4984102;28;20469;-66
2022/12/22 03:56:33;;;;;;;5.22;3.45;;;9.10;92.20;;;;;;4983534;28;20089;-66
2022/12/22 03:58:59;;;;;;;4.68;3.85;;;9.20;92.20;;;;;;4982450;28;20253;-66
2022/12/22 04:01:24;;;;;;;3.60;3.30;;;9.20;92.10;;;;;;4978895;28;20461;-66
2022/12/22 04:03:50;;;;;;;5.85;3.05;;;9.30;92.20;;;;;;4982745;28;20038;-68
2022/12/22 04:06:16;;;;;;;3.92;2.88;;;9.40;92.10;;;;;;4981864;28;20125;-65
2022/12/22 04:08:42;;;;;;;3.72;2.88;;;9.40;92.10;;;;;;4986108;28;20031;-66
2022/12/22 04:13:55;;;;;;;2.95;2.17;;;9.50;91.90;;;;;;4982907;28;20161;-66
2022/12/22 04:16:20;;;;;;;2.92;1.70;;;9.60;91.80;;;;;;4979210;28;20805;-65
2022/12/22 04:18:46;;;;;;;1.85;1.75;;;9.60;91.80;;;;;;4983153;28;20081;-66
2022/12/22 04:21:11;;;;;;;1.70;1.35;;;9.70;91.70;;;;;;4983183;28;20042;-65
2022/12/22 04:23:37;;;;;;;14.48;7.07;;;9.70;91.70;;;;;;4981599;28;20100;-66
2022/12/22 04:26:03;;;;;;;3.58;3.00;;;9.70;91.50;;;;;;4984128;28;20554;-65
2022/12/22 04:28:28;;;;;;;2.50;2.05;;;9.80;91.50;;;;;;4987027;28;20026;-66
2022/12/22 04:30:54;;;;;;;2.88;1.80;;;9.80;91.40;;;;;;4985125;28;20034;-65
2022/12/22 04:33:19;;;;;;;3.33;1.88;;;9.80;91.40;;;;;;4985325;28;20088;-66
2022/12/22 04:35:45;;;;;;;8.38;5.60;;;9.90;91.30;;;;;;4983348;28;20117;-65
2022/12/22 04:38:10;;;;;;;4.20;3.55;;;9.90;91.20;;;;;;4983757;28;20398;-66
2022/12/22 04:40:36;;;;;;;4.38;3.45;;;9.90;91.20;;;;;;4985613;28;20042;-66
2022/12/22 04:43:01;;;;;;;3.08;2.13;;;9.90;91.10;;;;;;4981707;28;20049;-66
2022/12/22 04:45:27;;;;;;;2.08;1.70;;;9.90;91.00;;;;;;4982688;28;20456;-65
2022/12/22 04:47:53;;;;;;;1.60;1.50;;;10.00;91.00;;;;;;4982451;28;20105;-66
2022/12/22 04:50:18;;;;;;;2.05;1.85;;;9.90;90.90;;;;;;4982129;28;20077;-66
2022/12/22 04:52:44;;;;;;;3.08;1.80;;;10.00;90.90;;;;;;4980290;28;20085;-65
2022/12/22 04:55:09;;;;;;;1.85;1.70;;;10.00;90.90;;;;;;4983138;28;20030;-65
2022/12/22 04:57:35;;;;;;;1.90;1.80;;;10.00;90.80;;;;;;4986236;28;20022;-65
2022/12/22 05:00:01;;;;;;;2.50;2.13;;;10.00;90.70;;;;;;4986585;28;20110;-65
2022/12/22 05:02:27;;;;;;;3.00;1.80;;;10.00;90.70;;;;;;4981512;28;20770;-66
2022/12/22 05:04:52;;;;;;;2.15;1.90;;;10.00;90.70;;;;;;4982337;28;20616;-67
2022/12/22 05:07:19;;;;;;;2.50;2.30;;;10.00;90.70;;;;;;4981414;28;20402;-66
2022/12/22 05:09:45;;;;;;;3.58;2.00;;;10.00;90.60;;;;;;4983406;28;20080;-65
2022/12/22 05:14:54;;;;;;;2.35;2.00;;;9.90;90.60;;;;;;4981908;28;20569;-67
2022/12/22 05:17:20;;;;;;;3.72;2.17;;;9.90;90.60;;;;;;4981913;28;20150;-64
2022/12/22 05:19:45;;;;;;;2.28;2.08;;;9.90;90.50;;;;;;4983158;28;20086;-67
2022/12/22 05:22:11;;;;;;;3.00;2.20;;;9.90;90.50;;;;;;4981172;28;20073;-67
2022/12/22 05:24:37;;;;;;;3.47;2.40;;;9.90;90.50;;;;;;4982372;28;20039;-66
2022/12/22 05:27:02;;;;;;;2.70;2.28;;;9.90;90.50;;;;;;4978183;28;20038;-65
2022/12/22 05:29:28;;;;;;;2.92;2.20;;;9.90;90.90;;;;;;4981555;28;20027;-64
2022/12/22 05:31:53;;;;;;;5.47;2.53;;;9.90;90.80;;;;;;4974827;28;20046;-65
2022/12/22 05:34:19;;;;;;;3.35;2.08;;;10.00;90.50;;;;;;4983000;28;20038;-65
2022/12/22 05:36:44;;;;;;;2.53;2.13;;;9.90;90.40;;;;;;4980814;28;20119;-65
2022/12/22 05:39:10;;;;;;;2.53;1.65;;;10.00;90.40;;;;;;4983454;28;20026;-66
2022/12/22 05:41:35;;;;;;;2.42;1.92;;;10.00;90.40;;;;;;4985298;28;20146;-65
2022/12/22 05:44:02;;;;;;;2.22;2.00;;;10.00;90.30;;;;;;4983337;28;20048;-65
2022/12/22 05:46:27;;;;;;;4.07;1.77;;;10.00;90.30;;;;;;4977890;28;20521;-64
2022/12/22 05:48:53;;;;;;;2.88;1.63;;;10.00;90.20;;;;;;4981687;28;20034;-66
2022/12/22 05:51:18;;;;;;;2.03;1.65;;;10.00;90.20;;;;;;4983892;28;20556;-65
2022/12/22 05:53:44;;;;;;;2.22;1.95;;;10.00;90.20;;;;;;4983011;28;20038;-65
2022/12/22 05:56:09;;;;;;;3.13;1.80;;;9.90;90.20;;;;;;4983410;28;20030;-64
2022/12/22 05:58:37;;;;;;;2.03;1.52;;;9.90;90.20;;;;;;4977541;28;20413;-64
2022/12/22 06:01:03;;;;;;;2.42;1.55;;;9.90;90.10;;;;;;4981472;28;20066;-66
2022/12/22 06:03:29;;;;;;;2.85;1.63;;;10.00;90.20;;;;;;4981851;28;20073;-64
2022/12/22 06:05:55;;;;;;;2.67;1.30;;;9.90;90.10;;;;;;4977642;28;20027;-63
2022/12/22 06:08:21;;;;;;;2.50;1.35;;;9.90;90.10;;;;;;4982759;28;20062;-64
2022/12/22 06:10:47;;;;;;;2.90;1.35;;;10.00;90.40;;;;;;4978896;28;20113;-63
2022/12/22 06:13:13;;;;;;;1.55;1.20;;;9.90;90.00;;;;;;4979168;28;20286;-65
2022/12/22 06:15:38;;;;;;;1.80;1.08;;;9.90;90.00;;;;;;4980118;28;20041;-64
2022/12/22 06:18:04;;;;;;;3.65;1.00;;;9.90;89.90;;;;;;4980693;28;20549;-64
2022/12/22 06:20:29;;;;;;;2.47;1.25;;;9.90;89.90;;;;;;4981136;28;20113;-65
2022/12/22 06:22:55;;;;;;;1.23;0.80;;;9.90;89.90;;;;;;4982469;28;20035;-64
2022/12/22 06:25:21;;;;;;;1.90;1.00;;;9.90;90.00;;;;;;4980517;28;20030;-64
2022/12/22 06:27:46;;;;;;;3.53;1.10;;;9.90;90.00;;;;;;4982106;28;20042;-64
2022/12/22 06:30:13;;;;;;;2.38;0.88;;;9.90;90.00;;;;;;4981743;28;20545;-64
2022/12/22 06:32:39;;;;;;;2.70;1.00;;;9.90;90.00;;;;;;4980035;28;20031;-64
2022/12/22 06:35:06;;;;;;;2.50;0.80;;;10.00;90.00;;;;;;4983115;28;20038;-64
2022/12/22 06:37:31;;;;;;;1.23;0.75;;;10.00;89.90;;;;;;4984822;28;20034;-64
2022/12/22 06:39:57;;;;;;;0.82;0.45;;;10.00;90.00;;;;;;4982723;28;20038;-65
2022/12/22 06:45:07;;;;;;;4.78;3.47;;;10.00;90.00;;;;;;4979975;28;20578;-64
2022/12/22 06:47:33;;;;;;;2.30;1.30;;;10.10;90.00;;;;;;4981391;28;20090;-64
2022/12/22 06:49:59;;;;;;;9.77;1.20;;;10.10;90.00;;;;;;4977412;28;20976;-63
2022/12/22 06:52:24;;;;;;;1.80;0.80;;;10.20;90.00;;;;;;4978959;28;20054;-65
2022/12/22 06:54:50;;;;;;;2.72;0.65;;;10.10;90.00;;;;;;4996875;28;20125;-63
2022/12/22 06:57:15;;;;;;;3.38;0.70;;;10.10;90.40;;;;;;4982967;28;20375;-64
2022/12/22 06:59:41;;;;;;;1.80;0.80;;;10.20;90.00;;;;;;4983397;28;20441;-63
2022/12/22 07:02:09;;;;;;;3.28;0.88;;;10.20;90.10;;;;;;4980530;28;20641;-63
2022/12/22 07:04:35;;;;;;;2.33;0.50;;;10.20;89.60;;;;;;4977990;28;20045;-64
2022/12/22 07:07:00;;;;;;;5.40;0.80;;;10.20;89.50;;;;;;4982081;28;20034;-64
2022/12/22 07:09:27;;;;;;;2.97;0.80;;;10.20;89.20;;;;;;4983430;28;20085;-64
2022/12/22 07:11:52;;;;;;;2.35;0.80;;;10.30;89.90;;;;;;4979705;28;20053;-64
2022/12/22 07:14:18;;;;;;;2.25;0.93;;;10.30;88.80;;;;;;4985397;28;20479;-65
2022/12/22 07:16:45;;;;;;;1.35;0.60;;;10.30;88.50;;;;;;4983262;28;20068;-65
2022/12/22 07:19:11;;;;;;;2.38;0.88;;;10.30;88.60;;;;;;4981593;28;20026;-64
2022/12/22 07:21:37;;;;;;;2.15;0.60;;;10.40;88.20;;;;;;4981214;28;20053;-64
2022/12/22 07:24:03;;;;;;;3.67;0.80;;;10.40;88.40;;;;;;4982814;28;20042;-64
2022/12/22 07:26:28;;;;;;;1.77;0.60;;;10.40;88.30;;;;;;4983128;28;20161;-62
2022/12/22 07:28:54;;;;;;;2.30;0.73;;;10.40;88.30;;;;;;4985313;28;22067;-64
2022/12/22 07:31:19;;;;;;;2.00;1.00;;;10.40;88.40;;;;;;4982627;28;20053;-64
2022/12/22 07:33:45;;;;;;;4.18;1.00;;;10.40;88.50;;;;;;4984668;28;20103;-62
2022/12/22 07:36:13;;;;;;;1.67;0.98;;;10.40;88.50;;;;;;4985884;28;20026;-64
2022/12/22 07:38:41;;;;;;;1.75;1.15;;;10.40;88.50;;;;;;4985224;28;20050;-63
2022/12/22 07:43:53;;;;;;;3.75;1.65;;;10.40;88.30;;;;;;4984779;28;20134;-64
2022/12/22 07:46:19;;;;;;;3.65;1.92;;;10.40;88.40;;;;;;4981899;28;20105;-64
2022/12/22 07:51:36;;;;;;;4.65;1.42;;;10.30;88.40;;;;;;4983683;28;20837;-63
2022/12/22 07:54:04;;;;;;;3.47;1.10;;;10.40;88.30;;;;;;4986925;28;20042;-64
2022/12/22 07:56:30;;;;;;;2.67;1.00;;;10.40;88.40;;;;;;4985864;28;20038;-64
2022/12/22 07:58:56;;;;;;;3.40;1.10;;;10.40;88.50;;;;;;4985986;28;20049;-64
2022/12/22 08:01:21;;;;;;;3.55;1.20;;;10.40;88.60;;;;;;4981716;28;20548;-64
2022/12/22 08:03:47;;;;;;;3.13;1.10;;;10.40;88.60;;;;;;4984622;28;20045;-64
2022/12/22 08:06:12;;;;;;;4.43;1.10;;;10.40;89.40;;;;;;4985599;28;20042;-63
2022/12/22 08:08:38;;;;;;;3.22;1.20;;;10.40;88.60;;;;;;4984183;28;20030;-64
2022/12/22 08:11:04;;;;;;;3.53;1.00;;;10.40;88.60;;;;;;4985764;28;20063;-64
2022/12/22 08:13:30;;;;;;;2.65;1.20;;;10.40;88.50;;;;;;4982721;28;20030;-63
2022/12/22 08:16:00;;;;;;;2.65;0.80;;;10.40;88.60;;;;;;4986589;28;20502;-64
2022/12/22 08:18:26;;;;;;;3.42;0.82;;;10.40;88.60;;;;;;4983280;28;20035;-63
2022/12/22 08:20:52;;;;;;;2.83;0.80;;;10.40;88.60;;;;;;4983053;28;20092;-64
2022/12/22 08:23:18;;;;;;;6.05;0.90;;;10.40;88.60;;;;;;4980700;28;20039;-64
2022/12/22 08:25:47;;;;;;;2.40;1.20;;;10.40;88.50;;;;;;4983587;28;20030;-64
2022/12/22 08:28:15;;;;;;;2.88;0.95;;;10.40;88.50;;;;;;4985816;28;20112;-62
2022/12/22 08:30:41;;;;;;;2.45;0.95;;;10.50;88.40;;;;;;4981085;28;20030;-64
2022/12/22 08:33:07;;;;;;;3.80;1.15;;;10.50;88.30;;;;;;4984953;28;20058;-64
2022/12/22 08:35:32;;;;;;;3.58;1.10;;;10.50;88.20;;;;;;4984085;28;20414;-64
2022/12/22 08:37:58;;;;;;;4.25;1.00;;;10.50;88.00;;;;;;4986516;28;20049;-64
2022/12/22 08:40:26;;;;;;;4.80;1.92;;;10.60;87.80;;;;;;4977841;28;20569;-63
2022/12/22 08:42:57;;;;;;;4.38;1.85;;;10.60;87.50;;;;;;4982671;28;20038;-64
2022/12/22 08:45:23;;;;;;;4.32;1.85;;;10.70;87.70;;;;;;4982736;28;20042;-63
2022/12/22 08:47:49;;;;;;;6.90;2.45;;;10.70;87.90;;;;;;4985911;28;20042;-63
2022/12/22 08:50:15;;;;;;;7.05;3.38;;;10.70;87.30;;;;;;4984883;28;20041;-63
2022/12/22 08:52:40;;;;;;;6.20;2.60;;;10.80;87.20;;;;;;4986325;28;20038;-63
2022/12/22 08:55:07;;;;;;;5.10;1.40;;;10.80;86.80;;;;;;4985752;28;20031;-63
2022/12/22 08:57:32;;;;;;;3.60;1.40;;;10.80;86.70;;;;;;4985823;28;20037;-64
2022/12/22 08:59:58;;;;;;;4.57;1.52;;;10.80;87.40;;;;;;4980946;28;20038;-64
2022/12/22 09:02:23;;;;;;;4.28;1.70;;;10.80;86.50;;;;;;4972066;28;20682;-64
2022/12/22 09:04:49;;;;;;;3.28;1.35;;;10.80;86.40;;;;;;4972941;28;20058;-63
2022/12/22 09:07:15;;;;;;;3.92;1.40;;;10.80;86.60;;;;;;4982885;28;20034;-64
2022/12/22 09:09:40;;;;;;;6.20;1.63;;;10.90;86.60;;;;;;4982702;28;20132;-64
2022/12/22 09:12:06;;;;;;;4.75;1.58;;;10.90;86.50;;;;;;4981576;28;20050;-63
2022/12/22 09:14:32;;;;;;;3.10;1.17;;;10.90;86.70;;;;;;4986803;28;20026;-64
2022/12/22 09:16:58;;;;;;;3.70;0.90;;;10.90;86.70;;;;;;4982963;28;20222;-63
2022/12/22 09:19:23;;;;;;;4.97;0.93;;;10.90;86.80;;;;;;4982502;28;20034;-62
2022/12/22 09:21:49;;;;;;;2.30;1.10;;;11.00;87.10;;;;;;4973399;28;20512;-62
2022/12/22 09:24:15;;;;;;;2.85;1.02;;;11.00;87.20;;;;;;4976639;28;20042;-65
2022/12/22 09:26:41;;;;;;;3.42;1.10;;;11.00;87.30;;;;;;4982815;28;20080;-64
2022/12/22 09:29:07;;;;;;;3.25;0.70;;;11.00;87.40;;;;;;4982185;28;20089;-64
2022/12/22 09:31:33;;;;;;;5.65;0.98;;;11.10;87.60;;;;;;4984619;28;20498;-64
2022/12/22 09:33:59;;;;;;;3.78;1.42;;;11.10;87.80;;;;;;4982246;28;20092;-64
2022/12/22 09:36:28;;;;;;;1.95;0.80;;;11.10;87.90;;;;;;4980453;28;20038;-64
2022/12/22 09:38:54;;;;;;;6.43;1.20;;;11.10;88.00;;;;;;4987038;28;20042;-65
2022/12/22 09:41:19;;;;;;;4.63;0.98;;;11.10;88.10;;;;;;4985905;28;20406;-63
2022/12/22 09:43:45;;;;;;;3.40;0.93;;;11.10;88.10;;;;;;4983305;28;20163;-64
2022/12/22 09:46:38;;;;;;;3.42;1.00;;;11.00;88.20;;;;;;4975106;28;20034;-63
2022/12/22 09:49:05;;;;;;;2.78;0.90;;;11.00;88.30;;;;;;4979603;28;20088;-62
2022/12/22 09:51:38;;;;;;;2.47;1.00;;;11.00;88.50;;;;;;4982086;28;20026;-63
2022/12/22 09:54:03;;;;;;;3.10;0.85;;;11.00;88.50;;;;;;4979825;28;20064;-63
2022/12/22 09:56:29;;;;;;;2.65;0.93;;;11.00;88.60;;;;;;4981742;28;20610;-64
2022/12/22 09:58:57;;;;;;;3.33;0.77;;;11.00;88.60;;;;;;4980557;28;20118;-63
2022/12/22 10:01:25;;;;;;;3.03;1.00;;;11.00;88.60;;;;;;4981952;28;20129;-64
2022/12/22 10:04:08;;;;;;;3.58;0.93;;;11.00;88.60;;;;;;4975571;28;20038;-63
2022/12/22 10:06:53;;;;;;;3.10;0.73;;;11.00;88.10;;;;;;4981254;28;20027;-61
2022/12/22 10:09:25;;;;;;;5.25;1.00;;;11.10;88.40;;;;;;4978694;28;20041;-63
2022/12/22 10:11:56;;;;;;;4.03;1.05;;;11.10;88.30;;;;;;4974228;28;20022;-62
2022/12/22 10:14:34;;;;;;;3.40;1.00;;;11.10;88.30;;;;;;4979002;28;20042;-63
2022/12/22 10:17:18;;;;;;;3.70;1.08;;;11.10;88.10;;;;;;4983331;28;20118;-61
2022/12/22 10:19:45;;;;;;;4.55;1.00;;;11.10;87.80;;;;;;4978249;28;20037;-63
2022/12/22 10:23:01;;;;;;;4.15;0.88;;;11.10;88.00;;;;;;4982010;28;20039;-61
2022/12/22 10:25:32;;;;;;;4.50;0.90;;;11.10;87.80;;;;;;4982449;28;20458;-63
2022/12/22 10:28:01;;;;;;;3.45;1.25;;;11.20;88.00;;;;;;4983548;28;20409;-61
2022/12/22 10:30:34;;;;;;;3.47;1.58;;;11.20;88.00;;;;;;4979728;28;20085;-61
2022/12/22 10:33:18;;;;;;;3.58;0.80;;;11.20;87.50;;;;;;4981857;28;20042;-62
2022/12/22 10:35:49;;;;;;;3.40;1.02;;;11.20;85.90;;;;;;4982119;28;20034;-61
2022/12/22 10:38:29;;;;;;;5.47;0.90;;;11.20;87.10;;;;;;4983617;28;20045;-62
2022/12/22 10:41:03;;;;;;;2.88;0.63;;;11.30;86.70;;;;;;4983119;28;20026;-62
2022/12/22 10:43:36;;;;;;;3.92;0.88;;;11.30;86.40;;;;;;4983239;28;20041;-63
2022/12/22 10:46:02;;;;;;;3.53;0.85;;;11.40;86.20;;;;;;4979507;28;20045;-63
2022/12/22 10:48:34;;;;;;;4.97;1.17;;;11.40;86.60;;;;;;4985470;28;20125;-63
2022/12/22 10:51:02;;;;;;;4.93;1.60;;;11.40;86.40;;;;;;4984583;28;20035;-63
2022/12/22 10:53:47;;;;;;;5.00;1.58;;;11.50;86.70;;;;;;4988118;28;20442;-60
2022/12/22 10:56:19;;;;;;;4.20;1.00;;;11.60;86.30;;;;;;4986129;28;20043;-62
2022/12/22 10:59:22;;;;;;;3.83;1.10;;;11.60;86.00;;;;;;4988763;28;20069;-63
2022/12/22 11:01:48;;;;;;;4.55;1.20;;;11.70;85.50;;;;;;4984081;28;20457;-60
2022/12/22 11:04:25;;;;;;;5.18;1.45;;;11.80;85.90;;;;;;4987428;28;20038;-62
2022/12/22 11:06:58;;;;;;;7.30;1.58;;;11.80;85.20;;;;;;4988324;28;20030;-62
2022/12/22 11:09:25;;;;;;;7.00;1.70;;;11.80;86.10;;;;;;4988508;28;20060;-60
2022/12/22 11:11:55;;;;;;;5.97;1.77;;;11.90;86.00;;;;;;4984962;28;20443;-62
2022/12/22 11:14:49;;;;;;;5.07;1.30;;;11.90;85.00;;;;;;4989026;28;20057;-62
2022/12/22 11:17:33;;;;;;;6.45;1.23;;;11.90;84.10;;;;;;4988338;28;20042;-61
2022/12/22 11:20:16;;;;;;;7.85;1.50;;;11.90;85.00;;;;;;4989807;28;20104;-61
2022/12/22 11:22:48;;;;;;;3.45;1.25;;;11.90;84.90;;;;;;4986148;28;20495;-62
2022/12/22 11:25:45;;;;;;;7.72;1.85;;;11.90;84.50;;;;;;4989401;28;20120;-61
2022/12/22 11:28:48;;;;;;;6.03;1.63;;;11.90;83.90;;;;;;4987288;28;20022;-61
2022/12/22 11:31:13;;;;;;;7.65;1.77;;;11.90;83.80;;;;;;4986673;28;20117;-61
2022/12/22 11:33:39;;;;;;;5.15;1.55;;;11.90;84.60;;;;;;4987353;28;20129;-62
2022/12/22 11:36:12;;;;;;;4.45;1.52;;;11.90;84.60;;;;;;4989550;28;20446;-61
2022/12/22 11:39:13;;;;;;;7.32;1.60;;;12.00;84.50;;;;;;4989095;28;20402;-62
2022/12/22 11:41:51;;;;;;;5.75;1.38;;;12.00;84.10;;;;;;4984840;28;20038;-61
2022/12/22 11:44:38;;;;;;;6.22;1.27;;;12.00;83.80;;;;;;4987272;28;20042;-61
2022/12/22 11:47:15;;;;;;;8.98;1.70;;;12.00;83.70;;;;;;4988331;28;20088;-62
2022/12/22 11:50:33;;;;;;;7.40;1.42;;;12.00;83.30;;;;;;4988577;28;20078;-62
2022/12/22 11:53:14;;;;;;;8.52;1.45;;;12.00;83.20;;;;;;4938379;28;20555;-61
2022/12/22 11:56:09;;;;;;;4.47;0.85;;;12.00;83.40;;;;;;4982526;28;20034;-60
2022/12/22 11:58:58;;;;;;;8.00;1.50;;;12.00;83.10;;;;;;4981663;28;20030;-62
2022/12/22 12:01:48;;;;;;;8.45;1.73;;;12.10;83.40;;;;;;4988144;28;20034;-62
2022/12/22 12:04:32;;;;;;;5.18;1.00;;;12.10;83.70;;;;;;4979202;28;20132;-61
2022/12/22 12:07:21;;;;;;;6.87;1.37;;;12.10;83.70;;;;;;4987576;28;20066;-62
2022/12/22 12:09:55;;;;;;;7.00;1.45;;;12.20;83.80;;;;;;4986609;28;20050;-60
2022/12/22 12:12:39;;;;;;;8.13;1.58;;;12.30;82.50;;;;;;4983995;28;20037;-62
2022/12/22 12:15:14;;;;;;;4.82;0.95;;;12.30;82.60;;;;;;4986787;28;20125;-61
2022/12/22 12:18:17;;;;;;;9.40;1.38;;;12.40;81.90;;;;;;4985073;28;20030;-62
2022/12/22 12:20:58;;;;;;;6.57;1.33;;;12.50;81.50;;;;;;4985184;28;20026;-60
2022/12/22 12:23:30;;;;;;;6.97;1.40;;;12.60;81.70;;;;;;4987315;28;20038;-61
2022/12/22 12:26:35;;;;;;;7.32;1.30;;;12.70;81.20;;;;;;4987128;28;20030;-62
2022/12/22 12:29:17;;;;;;;9.55;1.80;;;12.80;80.80;;;;;;4987246;28;20034;-61
2022/12/22 12:31:57;;;;;;;8.27;1.42;;;12.80;79.40;;;;;;4986595;28;20031;-61
2022/12/22 12:34:24;;;;;;;7.70;1.60;;;12.90;80.00;;;;;;4987291;28;20180;-60
2022/12/22 12:37:26;;;;;;;5.43;1.35;;;12.90;80.10;;;;;;4984891;28;20570;-59
2022/12/22 12:40:03;;;;;;;6.03;1.15;;;13.00;78.30;;;;;;4989583;28;20046;-62
2022/12/22 12:42:35;;;;;;;7.55;1.50;;;13.00;78.80;;;;;;4986857;28;20038;-62
2022/12/22 12:45:01;;;;;;;6.25;1.20;;;13.00;78.90;;;;;;4986793;28;20078;-61
2022/12/22 12:47:34;;;;;;;4.68;0.93;;;13.00;78.70;;;;;;4988932;28;20058;-61
2022/12/22 12:50:29;;;;;;;4.20;1.05;;;13.00;78.40;;;;;;4985686;28;20062;-60
2022/12/22 12:52:54;;;;;;;7.00;1.20;;;13.00;77.40;;;;;;4985854;28;20038;-61
2022/12/22 12:55:33;;;;;;;3.72;0.88;;;13.00;78.80;;;;;;4985804;28;20040;-61
2022/12/22 12:58:00;;;;;;;7.10;1.63;;;13.00;77.90;;;;;;4987365;28;20050;-60
2022/12/22 13:00:32;;;;;;;7.50;0.98;;;13.00;78.10;;;;;;4983139;28;20049;-60
2022/12/22 13:03:09;;;;;;;5.20;1.30;;;13.00;77.10;;;;;;4985792;28;20077;-61
2022/12/22 13:06:02;;;;;;;5.28;1.48;;;13.00;76.60;;;;;;4987221;28;20081;-61
2022/12/22 13:08:29;;;;;;;5.05;1.40;;;13.00;76.20;;;;;;4985443;28;20581;-61
2022/12/22 13:10:55;;;;;;;2.47;1.00;;;13.00;77.30;;;;;;4981608;28;20054;-61
2022/12/22 13:13:20;;;;;;;5.45;1.42;;;13.00;76.30;;;;;;4985864;28;20118;-62
2022/12/22 13:16:07;;;;;;;7.85;2.05;;;13.00;76.80;;;;;;4988080;28;20402;-62
2022/12/22 13:18:33;;;;;;;8.07;2.30;;;12.90;76.10;;;;;;4978303;28;20034;-62
2022/12/22 13:21:04;;;;;;;8.07;1.92;;;12.90;76.60;;;;;;4986506;28;20142;-61
2022/12/22 13:23:39;;;;;;;6.88;3.42;;;12.90;75.70;;;;;;4984338;28;20057;-60
2022/12/22 13:26:07;;;;;;;7.32;1.88;;;12.90;75.30;;;;;;4985526;28;20402;-61
2022/12/22 13:28:36;;;;;;;7.55;2.35;;;12.80;76.40;;;;;;4986807;28;20560;-61
2022/12/22 13:31:24;;;;;;;7.72;1.85;;;12.80;76.10;;;;;;4984749;28;20252;-60
2022/12/22 13:34:05;;;;;;;9.77;3.10;;;12.80;75.40;;;;;;4984810;28;20044;-60
2022/12/22 13:36:31;;;;;;;11.77;1.88;;;12.80;75.40;;;;;;4985510;28;20041;-60
2022/12/22 13:39:10;;;;;;;10.70;2.67;;;12.80;75.60;;;;;;4987169;28;20051;-61
2022/12/22 13:41:39;;;;;;;7.75;1.48;;;12.80;75.40;;;;;;4984858;28;20035;-61
2022/12/22 13:44:09;;;;;;;5.68;1.15;;;12.80;75.40;;;;;;4986623;28;20129;-60
2022/12/22 13:46:36;;;;;;;4.20;1.00;;;12.90;76.00;;;;;;4985554;28;20080;-60
2022/12/22 13:49:03;;;;;;;6.78;1.60;;;12.90;75.50;;;;;;4985660;28;20125;-61
2022/12/22 13:51:35;;;;;;;6.80;1.45;;;12.90;75.70;;;;;;4985995;28;20034;-62
2022/12/22 13:54:27;;;;;;;8.65;1.42;;;12.80;75.20;;;;;;4983611;28;20043;-61
2022/12/22 13:56:55;;;;;;;5.15;1.23;;;12.90;75.40;;;;;;4986265;28;20088;-61
2022/12/22 13:59:26;;;;;;;8.80;1.60;;;12.90;76.20;;;;;;4986584;28;20038;-59
2022/12/22 14:02:08;;;;;;;11.30;2.00;;;12.80;75.70;;;;;;4984358;28;20034;-61
2022/12/22 14:04:35;;;;;;;10.25;2.28;;;12.90;75.40;;;;;;4985083;28;20176;-60
2022/12/22 14:07:18;;;;;;;8.50;1.58;;;12.90;75.80;;;;;;4984803;28;20034;-59
2022/12/22 14:09:45;;;;;;;12.50;2.13;;;12.90;75.20;;;;;;4986248;28;20041;-59
2022/12/22 14:12:23;;;;;;;9.85;1.95;;;12.90;76.10;;;;;;4982259;28;20058;-61
2022/12/22 14:14:52;;;;;;;11.48;1.65;;;12.90;75.40;;;;;;4984888;28;20117;-61
2022/12/22 14:17:32;;;;;;;10.18;2.17;;;12.90;75.50;;;;;;4984224;28;20391;-60
2022/12/22 14:20:08;;;;;;;12.77;1.95;;;12.90;75.30;;;;;;4977383;28;20573;-60
2022/12/22 14:22:38;;;;;;;8.80;1.45;;;12.90;75.20;;;;;;4980975;28;20038;-61
2022/12/22 14:25:15;;;;;;;6.72;1.70;;;12.90;75.40;;;;;;4983501;28;20074;-59
2022/12/22 14:27:45;;;;;;;11.23;1.70;;;12.90;75.30;;;;;;4984725;28;20030;-62
2022/12/22 14:30:20;;;;;;;9.80;1.90;;;12.90;75.50;;;;;;4985643;28;20037;-61
2022/12/22 14:32:48;;;;;;;8.98;1.70;;;12.90;74.70;;;;;;4984038;28;20576;-59
2022/12/22 14:35:19;;;;;;;7.80;1.55;;;12.90;75.30;;;;;;4970981;28;20038;-60
2022/12/22 14:37:49;;;;;;;5.07;1.10;;;12.90;74.90;;;;;;4977331;28;20121;-60
2022/12/22 14:40:41;;;;;;;5.28;1.05;;;12.90;74.20;;;;;;4981718;28;20038;-61
2022/12/22 14:43:18;;;;;;;6.25;1.10;;;12.90;73.40;;;;;;4981481;28;20034;-60
2022/12/22 14:45:47;;;;;;;6.57;1.00;;;12.90;73.30;;;;;;4983731;28;20030;-61
2022/12/22 14:48:37;;;;;;;3.67;1.15;;;12.80;74.20;;;;;;4985166;28;20592;-61
2022/12/22 14:51:03;;;;;;;3.38;1.10;;;12.90;73.50;;;;;;4984789;28;20035;-61
2022/12/22 14:53:54;;;;;;;7.45;1.52;;;12.80;74.30;;;;;;4985208;28;20061;-60
2022/12/22 14:56:21;;;;;;;8.27;2.55;;;12.90;73.30;;;;;;4980481;28;20469;-60
2022/12/22 14:58:48;;;;;;;7.55;1.35;;;12.80;74.60;;;;;;4980160;28;20091;-61
2022/12/22 15:01:18;;;;;;;5.78;2.00;;;12.70;74.20;;;;;;4982890;28;20258;-61
2022/12/22 15:03:55;;;;;;;8.38;2.15;;;12.70;74.10;;;;;;4982936;28;20589;-60
2022/12/22 15:06:27;;;;;;;8.93;1.60;;;12.70;74.10;;;;;;4986516;28;20454;-59
2022/12/22 15:08:54;;;;;;;9.30;2.10;;;12.70;73.90;;;;;;4987771;28;20041;-58
2022/12/22 15:11:23;;;;;;;8.27;2.20;;;12.60;74.40;;;;;;4984245;28;20041;-60
2022/12/22 15:13:50;;;;;;;12.13;2.65;;;12.60;74.40;;;;;;4986886;28;20129;-61
2022/12/22 15:16:21;;;;;;;8.68;2.22;;;12.50;74.60;;;;;;4985719;28;20062;-59
2022/12/22 15:18:48;;;;;;;9.98;1.77;;;12.50;74.60;;;;;;4985882;28;20503;-61
2022/12/22 15:21:16;;;;;;;7.75;1.85;;;12.50;74.80;;;;;;4987429;28;20038;-61
2022/12/22 15:23:42;;;;;;;9.95;1.90;;;12.40;74.90;;;;;;4985153;28;20049;-60
2022/12/22 15:26:07;;;;;;;10.05;1.90;;;12.40;74.80;;;;;;4986306;28;20038;-59
2022/12/22 15:28:33;;;;;;;8.73;2.00;;;12.40;75.20;;;;;;4986163;28;20039;-59
2022/12/22 15:30:59;;;;;;;9.68;1.90;;;12.40;76.30;;;;;;4988177;28;20121;-59
2022/12/22 15:33:25;;;;;;;10.88;2.70;;;12.30;75.40;;;;;;4989170;28;20042;-59
2022/12/22 15:35:51;;;;;;;10.48;2.70;;;12.30;75.60;;;;;;4990502;28;20129;-60
2022/12/22 15:38:19;;;;;;;8.10;2.22;;;12.20;75.90;;;;;;4991277;28;20556;-60
2022/12/22 15:40:45;;;;;;;10.75;2.33;;;12.20;76.00;;;;;;4989584;28;20057;-62
2022/12/22 15:43:13;;;;;;;14.68;3.33;;;12.10;76.10;;;;;;4988239;28;20450;-60
2022/12/22 15:45:39;;;;;;;10.43;2.28;;;12.10;76.50;;;;;;4988792;28;20069;-61
2022/12/22 15:48:09;;;;;;;10.68;2.20;;;12.10;76.60;;;;;;4990751;28;20054;-59
2022/12/22 15:50:39;;;;;;;11.02;2.40;;;12.10;76.80;;;;;;4990043;28;20042;-60
2022/12/22 15:53:08;;;;;;;10.18;2.95;;;12.10;76.90;;;;;;4990137;28;20053;-61
2022/12/22 15:55:37;;;;;;;13.85;2.65;;;12.00;77.00;;;;;;4989793;28;20034;-60
2022/12/22 15:58:03;;;;;;;10.70;2.05;;;12.00;77.20;;;;;;4989687;28;20030;-59
2022/12/22 16:00:29;;;;;;;7.47;1.70;;;12.00;77.40;;;;;;4989294;28;20038;-62
2022/12/22 16:02:54;;;;;;;11.05;2.78;;;11.90;77.50;;;;;;4989631;28;20065;-61
2022/12/22 16:05:20;;;;;;;11.23;2.53;;;11.90;77.70;;;;;;4989908;28;20038;-59
2022/12/22 16:07:45;;;;;;;7.15;1.80;;;11.90;77.90;;;;;;4989994;28;20117;-60
2022/12/22 16:10:37;;;;;;;7.60;1.52;;;11.80;78.00;;;;;;4989699;28;20038;-59
2022/12/22 16:13:05;;;;;;;7.50;1.58;;;11.80;78.10;;;;;;4987735;28;20517;-60
2022/12/22 16:15:32;;;;;;;7.43;1.88;;;11.80;78.40;;;;;;4989575;28;20380;-60
2022/12/22 16:17:59;;;;;;;6.38;1.40;;;11.80;78.60;;;;;;4989343;28;20162;-60
2022/12/22 16:20:28;;;;;;;5.28;1.42;;;11.70;78.70;;;;;;4989958;28;20046;-61
2022/12/22 16:22:53;;;;;;;6.90;1.42;;;11.70;79.00;;;;;;4989270;28;20125;-60
2022/12/22 16:25:25;;;;;;;8.27;1.77;;;11.70;79.20;;;;;;4989270;28;20117;-61
2022/12/22 16:27:51;;;;;;;9.65;2.42;;;11.60;79.30;;;;;;4989446;28;20062;-61
2022/12/22 16:30:20;;;;;;;9.20;1.50;;;11.60;79.60;;;;;;4989631;28;20537;-60
2022/12/22 16:32:45;;;;;;;8.80;2.10;;;11.60;79.80;;;;;;4986542;28;20050;-61
2022/12/22 16:35:11;;;;;;;7.43;1.80;;;11.60;80.00;;;;;;4984964;28;20038;-60
2022/12/22 16:37:37;;;;;;;6.93;2.50;;;11.50;80.10;;;;;;4987024;28;20118;-61
2022/12/22 16:40:06;;;;;;;7.82;2.10;;;11.50;80.30;;;;;;4988191;28;20034;-60
2022/12/22 16:42:32;;;;;;;7.00;1.90;;;11.50;80.50;;;;;;4986588;28;20169;-59
2022/12/22 16:44:58;;;;;;;8.00;2.00;;;11.40;80.50;;;;;;4986192;28;20133;-61
2022/12/22 16:47:30;;;;;;;6.50;1.63;;;11.40;80.70;;;;;;4986097;28;20406;-61